Big Bear, California
Current Conditions -  °F | °C
As of 2:55 PM on Monday 24 Nov 2014 (Local Time) from KL35 Reporting Station
Clear Clear  
Wind Chill: 37°   Ceiling: Unl
Heat Index: 43°   Visibility: 10mi
Dew Point:   Wind: 10mph
Humidity: 25%   Direction: 70°ENE
Pressure: 30.41"   Gusts: 17mph
Location:  34.1118°N, 116.755°W
Report Text: KL35 242255Z AUTO 07009G15KT 044V104 10SM CLR 06/M13 A3041 RMK AO2
Loading
Personal Weather Stations






























Interactive Weather Map New forecast layout! Learn more

10-Day Weather Forecast

Advertisements
Track Severe Weather on mobile